Latest Weather Observations for Moorabbin Airport

IDV60901

Issued at 6:05 am EST Saturday 30 August 2014 (issued every 10 minutes, with the page automatically refreshed every 10 minutes)

About weather observations | Map of Melbourne area stations | Latest observations for Melbourne area | Other Formats
Station Details ID: 086077 Name: MOORABBIN AIRPORT Lat: -37.98 Lon: 145.10 Height: 12.1 m
Data from the previous 72 hours. | See also: Recent months at Moorabbin Airport
Date/Time
EST
Tmp

°C
App
Tmp
°C
Dew
Point
°C
Rel
Hum
%
Delta-T

°C
Wind Press
QNH
hPa
Press
MSL
hPa
Rain
since
9 am
mm
Dir
 
Spd
km/h
Gust
km/h
Spd
kts
Gust
kts
30/06:00am 11.1 9.4 9.9 92 0.6 N 9 13 5 7 1025.5 1025.6 0.0
30/05:30am 11.3 10.0 10.0 92 0.7 NNE 7 9 4 5 1025.5 1025.6 0.0
30/05:00am 11.3 9.7 10.2 93 0.6 N 9 13 5 7 1025.4 1025.5 0.0
30/04:54am 11.3 9.3 10.2 93 0.6 N 11 15 6 8 1025.4 1025.5 0.0
30/04:30am 11.2 10.0 10.4 95 0.4 NNW 7 11 4 6 1025.6 1025.7 0.0
30/04:02am 11.2 9.7 10.4 95 0.4 N 9 13 5 7 1025.7 1025.8 0.0
30/04:00am 11.2 9.3 10.4 95 0.4 N 11 15 6 8 1025.7 1025.8 0.0
30/03:41am 11.2 9.7 10.7 97 0.3 NNE 9 13 5 7 1025.6 1025.7 0.0
30/03:30am 11.1 9.3 10.8 98 0.2 NNE 11 17 6 9 1025.7 1025.8 0.0
30/03:00am 10.3 9.6 10.1 99 0.1 SSE 4 7 2 4 1025.8 1025.9 0.0
30/02:30am 10.2 8.9 9.9 98 0.2 S 7 9 4 5 1026.2 1026.3 0.0
30/02:05am 10.6 9.3 10.1 97 0.3 E 7 9 4 5 1026.3 1026.4 0.0
30/02:00am 11.0 9.9 10.5 97 0.3 E 7 9 4 5 1026.2 1026.3 0.0
30/01:43am 10.9 9.4 10.6 98 0.2 E 9 13 5 7 1026.3 1026.4 0.0
30/01:30am 10.7 9.2 10.5 99 0.1 ESE 9 13 5 7 1026.5 1026.6 0.0
30/01:00am 10.8 9.3 10.5 98 0.2 SE 9 11 5 6 1026.8 1026.9 0.0
30/12:34am 11.0 9.9 10.8 99 0.1 SE 7 11 4 6 1026.9 1027.0 0.0
30/12:30am 11.1 10.1 10.9 99 0.1 SE 7 9 4 5 1026.9 1027.0 0.0
30/12:00am 10.7 10.5 10.4 98 0.2 SSW 2 7 1 4 1027.2 1027.3 0.0
 
Date/Time
EST
Tmp

°C
App
Tmp
°C
Dew
Point
°C
Rel
Hum
%
Delta-T

°C
Wind Press
QNH
hPa
Press
MSL
hPa
Rain
since
9 am
mm
Dir
 
Spd
km/h
Gust
km/h
Spd
kts
Gust
kts
29/11:30pm 10.4 9.1 9.9 97 0.3 SW 7 9 4 5 1027.3 1027.4 0.0
29/11:00pm 10.7 9.4 9.9 95 0.4 SW 7 9 4 5 1027.3 1027.4 0.0
29/10:30pm 11.3 10.2 10.5 95 0.4 S 7 9 4 5 1027.5 1027.6 0.0
29/10:00pm 11.4 10.3 10.6 95 0.4 S 7 11 4 6 1027.8 1027.9 0.0
29/09:30pm 11.0 9.4 10.1 94 0.5 S 9 11 5 6 1028.0 1028.1 0.0
29/09:08pm 10.7 8.9 9.6 93 0.6 S 9 11 5 6 1027.9 1028.0 0.0
29/09:00pm 10.7 8.9 9.5 92 0.6 S 9 11 5 6 1028.0 1028.1 0.0
29/08:30pm 11.4 9.7 9.8 90 0.8 S 9 13 5 7 1027.9 1028.0 0.0
29/08:00pm 11.7 10.5 10.4 92 0.7 S 7 11 4 6 1027.9 1028.0 0.0
29/07:30pm 11.3 9.8 10.4 94 0.5 S 9 11 5 6 1027.9 1028.0 0.0
29/07:00pm 10.5 9.0 9.3 92 0.6 S 7 9 4 5 1028.0 1028.1 0.0
29/06:30pm 11.1 9.3 9.4 89 0.9 SW 9 13 5 7 1027.7 1027.8 0.0
29/06:00pm 11.8 9.6 9.5 86 1.2 SW 11 15 6 8 1027.6 1027.7 0.0
29/05:30pm 12.2 9.3 9.6 84 1.3 SW 15 19 8 10 1027.5 1027.6 0.0
29/05:00pm 12.1 9.1 9.3 83 1.4 SSW 15 19 8 10 1027.7 1027.8 0.0
29/04:30pm 12.8 9.8 9.3 79 1.8 SSW 15 20 8 11 1027.6 1027.7 0.0
29/04:00pm 13.5 10.9 9.4 76 2.1 SSW 13 19 7 10 1027.6 1027.7 0.0
29/03:30pm 13.5 11.7 9.6 77 2.0 SW 9 13 5 7 1027.5 1027.6 0.0
29/03:00pm 13.6 11.5 9.6 77 2.0 SW 11 15 6 8 1027.6 1027.7 0.0
29/02:30pm 14.1 11.8 10.3 78 2.0 SW 13 17 7 9 1027.9 1028.0 0.0
29/02:00pm 14.2 13.2 9.0 71 2.6 NNE 4 7 2 4 1028.0 1028.1 0.0
29/01:30pm 14.0 13.1 9.4 74 2.4 N 4 6 2 3 1028.2 1028.3 0.0
29/01:00pm 12.8 11.8 10.2 84 1.3 S 6 9 3 5 1028.7 1028.8 0.0
29/12:30pm 12.3 9.9 10.2 87 1.1 SW 13 17 7 9 1029.2 1029.3 0.0
29/12:00pm 12.8 12.7 9.3 79 1.8 CALM 0 6 0 3 1029.5 1029.6 0.0
29/11:30am 12.5 11.2 9.1 80 1.7 NNE 6 24 3 13 1030.0 1030.0 0.0
29/11:04am 12.4 11.2 9.4 82 1.5 ENE 6 9 3 5 1030.1 1030.1 0.0
29/11:00am 12.4 11.2 9.6 83 1.4 NE 6 9 3 5 1030.1 1030.1 0.0
29/10:30am 11.9 11.0 9.1 83 1.4 NE 4 9 2 5 1030.1 1030.1 0.0
29/10:25am 12.1 11.6 9.5 84 1.3 NE 2 7 1 4 1030.2 1030.2 0.0
29/10:00am 11.9 10.5 9.6 86 1.2 NE 7 9 4 5 1030.2 1030.2 0.0
29/09:30am 11.3 9.9 9.4 88 1.0 NE 7 11 4 6 1030.1 1030.1 0.0
29/09:05am 11.4 9.7 10.0 91 0.7 ENE 9 11 5 6 1030.1 1030.1 0.0
29/09:00am 11.5 9.9 10.2 92 0.7 ENE 9 11 5 6 1030.1 1030.1 0.2
29/08:47am 11.5 10.0 10.6 94 0.5 ENE 9 13 5 7 1029.8 1029.9 0.2
29/08:36am 11.3 9.8 10.7 96 0.3 E 9 13 5 7 1029.7 1029.8 0.2
29/08:30am 11.1 9.7 10.8 98 0.2 E 9 13 5 7 1029.6 1029.7 0.2
29/08:00am 10.7 9.8 10.7 100 0.0 SSW 6 9 3 5 1029.5 1029.6 0.2
29/07:30am 10.4 10.6 10.4 100 0.0 CALM 0 6 0 3 1029.3 1029.4 0.2
29/07:00am 10.0 8.7 10.0 100 0.0 NW 7 9 4 5 1029.0 1029.1 0.2
29/06:55am 10.0 8.7 10.0 100 0.0 NW 7 9 4 5 1028.9 1029.0 0.2
29/06:43am 9.9 8.6 9.9 100 0.0 NW 7 9 4 5 1028.9 1029.0 0.2
29/06:30am 9.8 8.7 9.8 100 0.0 WNW 6 9 3 5 1028.8 1028.9 0.2
29/06:00am 9.9 8.8 9.9 100 0.0 NW 6 9 3 5 1028.3 1028.4 0.2
29/05:30am 9.9 8.6 9.9 100 0.0 NW 7 11 4 6 1028.2 1028.3 0.2
29/05:00am 10.1 9.8 10.1 100 0.0 NW 2 6 1 3 1028.0 1028.1 0.2
29/04:30am 10.1 8.5 10.1 100 0.0 N 9 11 5 6 1028.0 1028.1 0.2
29/04:00am 10.1 8.8 10.1 100 0.0 NNW 7 11 4 6 1028.2 1028.3 0.2
29/03:30am 10.1 8.8 10.1 100 0.0 NNW 7 9 4 5 1028.2 1028.3 0.2
29/03:00am 10.3 9.1 10.3 100 0.0 NNW 7 11 4 6 1028.2 1028.3 0.2
29/02:30am 10.5 9.4 10.5 100 0.0 WNW 7 11 4 6 1028.3 1028.4 0.2
29/02:00am 9.8 8.5 9.8 100 0.0 NNW 7 7 4 4 1028.3 1028.4 0.2
29/01:43am 9.4 7.6 9.3 99 0.0 NNW 9 11 5 6 1028.4 1028.5 0.2
29/01:30am 8.7 6.7 8.6 99 0.0 NNW 9 11 5 6 1028.3 1028.4 0.2
29/01:00am 7.8 5.9 7.7 99 0.0 NW 7 7 4 4 1028.3 1028.4 0.2
29/12:30am 8.5 6.4 8.4 99 0.0 N 9 11 5 6 1028.1 1028.2 0.2
29/12:00am 8.6 8.2 8.3 98 0.1 CALM 0 0 0 0 1028.4 1028.5 0.2
 
Date/Time
EST
Tmp

°C
App
Tmp
°C
Dew
Point
°C
Rel
Hum
%
Delta-T

°C
Wind Press
QNH
hPa
Press
MSL
hPa
Rain
since
9 am
mm
Dir
 
Spd
km/h
Gust
km/h
Spd
kts
Gust
kts
28/11:30pm 9.0 8.7 8.5 97 0.2 CALM 0 0 0 0 1028.5 1028.6 0.2
28/11:00pm 8.9 7.3 8.1 95 0.4 WSW 6 6 3 3 1028.5 1028.6 0.2
28/10:48pm 9.4 8.7 8.5 94 0.4 WSW 2 7 1 4 1028.5 1028.6 0.2
28/10:30pm 10.1 8.3 9.3 95 0.4 W 9 9 5 5 1028.7 1028.8 0.2
28/10:25pm 10.2 8.4 9.6 96 0.3 W 9 9 5 5 1028.6 1028.7 0.2
28/10:09pm 9.8 8.4 8.9 94 0.4 W 6 13 3 7 1028.7 1028.8 0.2
28/10:05pm 9.4 8.7 8.5 94 0.4 WSW 2 11 1 6 1028.7 1028.8 0.2
28/10:00pm 9.4 9.0 8.3 93 0.5 CALM 0 0 0 0 1028.5 1028.6 0.2
28/09:30pm 10.3 10.2 9.4 94 0.4 CALM 0 0 0 0 1028.5 1028.6 0.2
28/09:16pm 10.4 10.2 9.2 92 0.6 CALM 0 0 0 0 1028.4 1028.5 0.2
28/09:00pm 10.7 9.4 9.3 91 0.7 E 6 6 3 3 1028.4 1028.5 0.2
28/08:30pm 11.1 9.3 9.4 89 0.9 ESE 9 9 5 5 1028.2 1028.3 0.2
28/08:00pm 11.4 9.7 9.7 89 0.9 SE 9 13 5 7 1028.0 1028.1 0.2
28/07:30pm 12.0 9.9 9.7 86 1.2 SSE 11 13 6 7 1027.8 1027.9 0.2
28/07:00pm 12.9 10.3 9.3 79 1.8 ESE 13 15 7 8 1027.5 1027.6 0.2
28/06:30pm 12.3 10.5 7.2 71 2.5 SSE 6 7 3 4 1027.5 1027.6 0.2
28/06:00pm 12.5 9.9 6.3 66 2.9 SSW 9 11 5 6 1027.3 1027.4 0.0
28/05:30pm 13.9 11.0 6.7 62 3.5 SSW 11 13 6 7 1027.1 1027.2 0.0
28/05:00pm 15.2 12.7 6.5 56 4.2 S 9 13 5 7 1026.8 1026.9 0.0
28/04:30pm 16.6 14.2 7.0 53 4.8 S 9 11 5 6 1026.8 1026.9 0.0
28/04:00pm 16.2 13.7 6.6 53 4.7 SSW 9 11 5 6 1026.8 1026.9 0.0
28/03:30pm 15.8 13.1 7.3 57 4.2 SSW 11 13 6 7 1027.0 1027.1 0.0
28/03:00pm 15.3 12.5 8.5 64 3.4 SSW 13 17 7 9 1027.0 1027.1 0.0
28/02:30pm 14.5 11.8 9.1 70 2.8 SSW 13 15 7 8 1027.0 1027.1 0.0
28/02:00pm 14.0 11.1 9.6 75 2.2 SSW 15 17 8 9 1027.1 1027.2 0.0
28/01:30pm 14.8 12.8 10.2 74 2.4 SSW 11 13 6 7 1027.1 1027.2 0.0
28/01:00pm 14.3 12.0 10.3 77 2.1 SSW 13 15 7 8 1027.7 1027.8 0.0
28/12:30pm 14.7 12.9 10.9 78 2.0 S 11 15 6 8 1028.0 1028.1 0.0
28/12:00pm 13.2 11.6 10.2 82 1.5 SSW 9 13 5 7 1028.3 1028.4 0.0
28/11:30am 13.2 11.7 9.3 77 2.0 W 7 15 4 8 1028.7 1028.8 0.0
28/11:00am 13.9 13.7 10.3 79 1.9 NW 2 9 1 5 1029.0 1029.1 0.0
28/10:30am 12.1 11.1 10.2 88 1.0 N 6 9 3 5 1029.3 1029.4 0.0
28/10:00am 11.7 11.5 11.7 100 0.0 W 4 7 2 4 1029.6 1029.7 0.0
28/09:38am 10.0 8.7 10.0 100 0.0 N 7 11 4 6 1029.5 1029.6 0.0
28/09:32am 9.7 8.0 9.7 100 0.0 N 9 13 5 7 1029.5 1029.6 0.0
28/09:30am 9.6 7.8 9.6 100 0.0 N 9 13 5 7 1029.5 1029.6 0.0
28/09:00am 8.0 6.2 8.0 100 0.0 N 7 11 4 6 1029.7 1029.8 0.0
28/08:30am 8.2 6.5 8.2 100 0.0 N 7 11 4 6 1029.7 1029.8 0.0
28/08:00am 8.5 6.5 8.5 100 0.0 NE 9 11 5 6 1029.6 1029.7 0.0
28/07:30am 8.6 6.2 8.6 100 0.0 NNE 11 13 6 7 1029.4 1029.5 0.0
28/07:00am 9.1 7.2 9.1 100 0.0 NNW 9 11 5 6 1029.2 1029.3 0.0
28/06:30am 9.1 7.8 9.1 100 0.0 N 6 7 3 4 1029.1 1029.2 0.0
28/06:00am 9.0 7.1 9.0 100 0.0 N 9 11 5 6 1028.8 1028.9 0.0
28/05:30am 8.9 7.3 8.9 100 0.0 N 7 13 4 7 1028.5 1028.6 0.0
28/05:00am 8.4 6.3 8.4 100 0.0 NNW 9 13 5 7 1028.7 1028.8 0.0
28/04:30am 8.7 7.1 8.7 100 0.0 NE 7 11 4 6 1028.5 1028.6 0.0
28/04:00am 8.9 7.9 8.9 100 0.0 NNE 4 11 2 6 1028.5 1028.6 0.0
28/03:30am 8.5 6.5 8.5 100 0.0 NNE 9 13 5 7 1028.6 1028.7 0.0
28/03:00am 8.7 7.3 8.7 100 0.0 NNE 6 9 3 5 1028.6 1028.7 0.0
28/02:30am 8.9 7.5 8.9 100 0.0 NNE 6 7 3 4 1028.8 1028.9 0.0
28/02:00am 9.1 7.6 9.1 100 0.0 E 7 9 4 5 1028.8 1028.9 0.0
28/01:30am 9.1 7.8 9.1 100 0.0 ENE 6 9 3 5 1028.7 1028.8 0.0
28/01:00am 9.2 8.7 9.2 100 0.0 ESE 2 9 1 5 1029.1 1029.2 0.0
28/12:30am 9.2 8.3 9.2 100 0.0 SSE 4 7 2 4 1029.0 1029.1 0.0
28/12:00am 9.3 8.4 9.3 100 0.0 SW 4 9 2 5 1029.1 1029.2 0.0
 
Date/Time
EST
Tmp

°C
App
Tmp
°C
Dew
Point
°C
Rel
Hum
%
Delta-T

°C
Wind Press
QNH
hPa
Press
MSL
hPa
Rain
since
9 am
mm
Dir
 
Spd
km/h
Gust
km/h
Spd
kts
Gust
kts
27/11:30pm 9.2 7.9 9.2 100 0.0 SSW 6 9 3 5 1029.1 1029.2 0.0
27/11:00pm 9.2 9.0 9.2 100 0.0 CALM 0 4 0 2 1029.0 1029.1 0.0
27/10:30pm 9.1 7.8 9.1 100 0.0 E 6 9 3 5 1028.8 1028.9 0.0
27/10:00pm 9.2 7.0 9.2 100 0.0 ESE 11 13 6 7 1028.7 1028.8 0.0
27/09:30pm 9.3 6.7 9.2 99 0.0 E 13 17 7 9 1028.6 1028.7 0.0
27/09:00pm 9.7 7.6 9.6 99 0.0 ESE 11 15 6 8 1028.7 1028.8 0.0
27/08:30pm 9.6 7.0 9.5 99 0.0 SE 13 15 7 8 1028.7 1028.8 0.0
27/08:16pm 9.8 8.1 9.7 99 0.1 SE 9 11 5 6 1028.6 1028.7 0.0
27/08:00pm 9.3 7.1 9.2 99 0.0 ESE 11 15 6 8 1028.3 1028.4 0.0
27/07:30pm 9.4 9.3 9.3 99 0.0 CALM 0 0 0 0 1028.2 1028.3 0.0
27/07:00pm 10.6 10.4 10.4 99 0.1 WSW 2 6 1 3 1027.8 1027.9 0.0
27/06:30pm 10.5 10.6 10.3 99 0.1 CALM 0 4 0 2 1027.6 1027.7 0.0
27/06:00pm 10.8 9.6 10.3 97 0.3 SW 7 9 4 5 1027.6 1027.7 0.0
27/05:43pm 11.5 10.1 10.9 96 0.3 SW 9 17 5 9 1027.6 1027.7 0.0
27/05:30pm 11.7 9.5 10.8 94 0.5 SSW 13 19 7 10 1027.5 1027.6 0.0
27/05:00pm 12.8 10.1 10.2 84 1.3 SW 15 20 8 11 1027.3 1027.4 0.0
27/04:30pm 14.7 11.8 9.5 71 2.7 SW 15 20 8 11 1027.1 1027.2 0.0
27/04:00pm 16.5 14.6 9.0 61 3.8 SSW 9 11 5 6 1026.9 1027.0 0.0
27/03:30pm 15.8 14.3 9.2 65 3.4 S 7 11 4 6 1026.9 1027.0 0.0
27/03:00pm 15.1 13.5 10.1 72 2.6 SSW 9 15 5 8 1027.1 1027.2 0.0
27/02:30pm 13.9 11.9 10.3 79 1.9 SW 11 17 6 9 1027.1 1027.2 0.0
27/02:00pm 12.9 9.6 9.5 80 1.7 SW 17 28 9 15 1027.4 1027.5 0.0
27/01:30pm 14.2 13.6 11.7 85 1.3 SSW 6 9 3 5 1027.2 1027.3 0.0
27/01:00pm 12.9 11.2 11.1 89 0.9 SSW 11 15 6 8 1027.5 1027.6 0.0
27/12:58pm 13.1 11.5 11.5 90 0.8 SSW 11 15 6 8 1027.5 1027.6 0.0
27/12:43pm 12.3 9.4 10.9 91 0.7 SW 17 20 9 11 1027.7 1027.8 0.0
27/12:30pm 12.5 9.0 10.2 86 1.2 SW 19 24 10 13 1027.8 1027.9 0.0
27/12:00pm 15.3 14.9 12.4 83 1.6 SSW 6 7 3 4 1027.9 1028.0 0.0
27/11:30am 13.2 12.5 11.9 92 0.7 SSW 7 11 4 6 1028.3 1028.4 0.0
27/11:14am 12.1 10.1 11.6 97 0.3 SW 13 17 7 9 1028.5 1028.6 0.0
27/11:00am 11.1 8.6 10.9 99 0.1 SW 15 17 8 9 1028.6 1028.7 0.0
27/10:39am 11.6 9.6 11.6 100 0.0 SSW 13 17 7 9 1028.6 1028.7 0.0
27/10:30am 12.3 10.9 12.3 100 0.0 SW 11 13 6 7 1028.5 1028.6 0.0
27/10:00am 12.1 12.8 12.1 100 0.0 CALM 0 6 0 3 1028.6 1028.7 0.0
27/09:54am 11.5 11.6 11.5 100 0.0 SE 2 6 1 3 1028.5 1028.6 0.0
27/09:47am 11.8 11.6 11.8 100 0.0 SE 4 7 2 4 1028.4 1028.5 0.0
27/09:30am 10.9 10.4 10.9 100 0.0 E 4 9 2 5 1028.2 1028.3 0.0
27/09:00am 9.8 8.7 9.8 100 0.0 NNE 6 7 3 4 1028.2 1028.3 0.0
27/08:30am 9.4 8.5 9.4 100 0.0 NW 4 7 2 4 1028.2 1028.3 0.0
27/08:00am 9.2 9.0 9.2 100 0.0 CALM 0 0 0 0 1028.0 1028.1 0.0
27/07:30am 9.2 8.7 9.2 100 0.0 NNW 2 7 1 4 1027.9 1028.0 0.0
27/07:00am 9.4 8.2 9.4 100 0.0 NNE 6 9 3 5 1027.4 1027.5 0.0
27/06:30am 9.4 7.6 9.4 100 0.0 NE 9 11 5 6 1027.0 1027.1 0.0

Latest Capital City Observations: Canberra | Sydney | Melbourne | Brisbane | Adelaide | Perth | Hobart | Darwin

Other Formats:

Comma delimited format used in spreadsheet applications
http://www.bom.gov.au/fwo/IDV60901/IDV60901.94870.axf

JavaScript Object Notation format (JSON) in row-major order
http://www.bom.gov.au/fwo/IDV60901/IDV60901.94870.json